createdAt,value
2018-07-25T00:00:54.156Z,53.30
2018-07-25T00:01:59.026Z,53.30
2018-07-25T00:03:03.928Z,53.30
2018-07-25T00:04:08.592Z,53.30
2018-07-25T00:05:13.302Z,53.30
2018-07-25T00:06:18.115Z,53.30
2018-07-25T00:07:22.898Z,53.90
2018-07-25T00:08:27.652Z,53.30
2018-07-25T00:09:32.420Z,53.30
2018-07-25T00:10:37.286Z,53.30
2018-07-25T00:11:42.049Z,53.30
2018-07-25T00:12:47.033Z,53.30
2018-07-25T00:13:51.900Z,53.30
2018-07-25T00:14:56.730Z,53.30
2018-07-25T00:16:01.655Z,53.30
2018-07-25T00:17:06.507Z,53.30
2018-07-25T00:18:11.334Z,53.30
2018-07-25T00:19:16.205Z,53.30
2018-07-25T00:20:21.095Z,53.30
2018-07-25T00:21:26.004Z,53.30
2018-07-25T00:22:30.807Z,53.30
2018-07-25T00:23:35.704Z,53.30
2018-07-25T00:24:40.405Z,53.30
2018-07-25T00:25:45.120Z,53.30
2018-07-25T00:26:49.808Z,53.30
2018-07-25T00:27:58.213Z,53.40
2018-07-25T00:29:02.987Z,53.30
2018-07-25T00:30:07.913Z,53.30
2018-07-25T00:31:12.888Z,53.30
2018-07-25T00:32:17.902Z,53.30
2018-07-25T00:33:22.680Z,53.30
2018-07-25T00:34:27.463Z,53.30
2018-07-25T00:35:32.427Z,53.30
2018-07-25T00:36:37.448Z,53.30
2018-07-25T00:37:42.177Z,53.30
2018-07-25T00:38:46.907Z,53.30
2018-07-25T00:39:51.749Z,53.30
2018-07-25T00:40:57.180Z,53.40
2018-07-25T00:42:02.098Z,53.30
2018-07-25T00:43:07.697Z,53.40
2018-07-25T00:44:12.426Z,53.40
2018-07-25T00:45:17.244Z,53.40
2018-07-25T00:46:21.998Z,53.40
2018-07-25T00:47:26.896Z,53.40
2018-07-25T00:48:31.794Z,53.40
2018-07-25T00:49:36.567Z,53.30
2018-07-25T00:50:41.434Z,53.40
2018-07-25T00:51:46.406Z,53.40
2018-07-25T00:52:51.312Z,53.40
2018-07-25T00:53:56.164Z,53.40
2018-07-25T00:55:01.043Z,53.40
2018-07-25T00:56:05.977Z,53.40
2018-07-25T00:57:10.867Z,53.50
2018-07-25T00:58:15.796Z,53.40
2018-07-25T00:59:20.706Z,53.40
2018-07-25T01:00:25.522Z,53.50
2018-07-25T01:01:30.268Z,53.40
2018-07-25T01:02:35.160Z,53.40
2018-07-25T01:03:40.102Z,53.40
2018-07-25T01:04:45.146Z,53.40
2018-07-25T01:05:49.912Z,53.40
2018-07-25T01:06:54.661Z,53.40
2018-07-25T01:07:59.568Z,53.40
2018-07-25T01:09:04.355Z,53.50
2018-07-25T01:10:09.144Z,53.50
2018-07-25T01:11:13.892Z,53.40
2018-07-25T01:12:18.584Z,53.40
2018-07-25T01:13:23.514Z,53.40
2018-07-25T01:14:28.494Z,53.40
2018-07-25T01:15:33.392Z,53.40
2018-07-25T01:16:38.120Z,53.40
2018-07-25T01:17:42.998Z,53.40
2018-07-25T01:18:47.767Z,53.40
2018-07-25T01:19:52.793Z,53.40
2018-07-25T01:20:57.766Z,53.50
2018-07-25T01:22:02.603Z,53.40
2018-07-25T01:23:07.317Z,53.50
2018-07-25T01:24:12.019Z,53.50
2018-07-25T01:25:16.805Z,53.50
2018-07-25T01:26:21.617Z,53.50
2018-07-25T01:27:26.360Z,53.40
2018-07-25T01:28:31.101Z,53.40
2018-07-25T01:29:35.964Z,53.50
2018-07-25T01:30:40.655Z,53.40
2018-07-25T01:31:45.650Z,53.40
2018-07-25T01:32:50.474Z,53.40
2018-07-25T01:33:55.379Z,53.50
2018-07-25T01:35:00.342Z,53.40
2018-07-25T01:36:05.292Z,53.40
2018-07-25T01:37:09.973Z,53.50
2018-07-25T01:38:14.809Z,53.40
2018-07-25T01:39:19.682Z,53.50
2018-07-25T01:40:24.457Z,53.50
2018-07-25T01:41:29.223Z,53.40
2018-07-25T01:42:33.905Z,53.50
2018-07-25T01:43:38.756Z,53.50
2018-07-25T01:44:43.644Z,53.50
2018-07-25T01:45:48.471Z,53.40
2018-07-25T01:46:53.313Z,53.40
2018-07-25T01:47:58.181Z,53.50
2018-07-25T01:49:03.111Z,53.50
2018-07-25T01:50:08.012Z,53.60
2018-07-25T01:51:13.066Z,53.50
2018-07-25T01:52:17.850Z,53.40
2018-07-25T01:53:22.786Z,53.50
2018-07-25T01:54:27.497Z,53.50
2018-07-25T01:55:32.220Z,53.50
2018-07-25T01:56:37.030Z,53.50
2018-07-25T01:57:41.873Z,53.50
2018-07-25T01:58:46.769Z,53.50
2018-07-25T01:59:51.621Z,53.50
2018-07-25T02:00:56.334Z,53.50
2018-07-25T02:02:01.180Z,53.50
2018-07-25T02:03:05.968Z,53.50
2018-07-25T02:04:10.721Z,53.50
2018-07-25T02:05:15.636Z,53.50
2018-07-25T02:06:20.481Z,53.50
2018-07-25T02:07:25.400Z,53.50
2018-07-25T02:08:30.615Z,53.50
2018-07-25T02:09:35.588Z,53.50
2018-07-25T02:10:40.434Z,53.60
2018-07-25T02:11:45.456Z,53.50
2018-07-25T02:12:50.393Z,53.50
2018-07-25T02:13:55.251Z,53.60
2018-07-25T02:15:00.385Z,53.60
2018-07-25T02:16:05.349Z,53.60
2018-07-25T02:17:10.224Z,53.50
2018-07-25T02:18:15.060Z,53.50
2018-07-25T02:19:20.075Z,53.60
2018-07-25T02:20:25.096Z,53.60
2018-07-25T02:21:30.080Z,53.60
2018-07-25T02:22:34.859Z,53.60
2018-07-25T02:23:39.681Z,53.50
2018-07-25T02:24:44.628Z,53.60
2018-07-25T02:25:49.615Z,53.60
2018-07-25T02:26:54.420Z,53.60
2018-07-25T02:27:59.254Z,53.60
2018-07-25T02:29:04.176Z,53.60
2018-07-25T02:30:09.192Z,53.60
2018-07-25T02:31:14.094Z,53.60
2018-07-25T02:32:18.917Z,53.60
2018-07-25T02:33:23.856Z,53.60
2018-07-25T02:34:28.608Z,53.60
2018-07-25T02:35:33.561Z,53.60
2018-07-25T02:36:38.270Z,53.50
2018-07-25T02:37:43.026Z,53.60
2018-07-25T02:38:47.810Z,53.70
2018-07-25T02:39:52.493Z,53.60
2018-07-25T02:40:57.221Z,53.60
2018-07-25T02:42:02.069Z,53.60
2018-07-25T02:43:07.051Z,53.60
2018-07-25T02:44:11.883Z,53.60
2018-07-25T02:45:16.642Z,53.90
2018-07-25T02:46:21.407Z,53.60
2018-07-25T02:47:26.269Z,53.60
2018-07-25T02:48:31.171Z,53.60
2018-07-25T02:49:36.039Z,53.70
2018-07-25T02:50:40.743Z,53.60
2018-07-25T02:51:45.547Z,53.60
2018-07-25T02:52:50.368Z,53.60
2018-07-25T02:53:55.125Z,53.60
2018-07-25T02:54:59.969Z,53.60
2018-07-25T02:56:04.739Z,53.60
2018-07-25T02:57:09.634Z,53.60
2018-07-25T02:58:14.557Z,53.60
2018-07-25T02:59:19.521Z,53.60
2018-07-25T03:00:24.339Z,53.60
2018-07-25T03:01:29.207Z,53.60
2018-07-25T03:02:34.014Z,53.60
2018-07-25T03:03:38.948Z,53.60
2018-07-25T03:04:43.791Z,53.60
2018-07-25T03:05:48.808Z,53.70
2018-07-25T03:06:53.598Z,53.70
2018-07-25T03:07:58.554Z,53.60
2018-07-25T03:09:03.625Z,53.60
2018-07-25T03:10:08.514Z,53.70
2018-07-25T03:11:13.365Z,53.60
2018-07-25T03:12:18.126Z,53.60
2018-07-25T03:13:22.992Z,53.60
2018-07-25T03:14:27.762Z,53.70
2018-07-25T03:15:32.776Z,53.70
2018-07-25T03:16:37.723Z,53.70
2018-07-25T03:17:42.572Z,53.70
2018-07-25T03:18:47.529Z,53.70
2018-07-25T03:19:52.319Z,53.70
2018-07-25T03:20:57.184Z,53.70
2018-07-25T03:22:02.197Z,53.70
2018-07-25T03:23:06.974Z,53.70
2018-07-25T03:24:11.700Z,53.70
2018-07-25T03:25:16.665Z,53.70
2018-07-25T03:26:21.576Z,53.70
2018-07-25T03:27:26.510Z,53.70
2018-07-25T03:28:31.272Z,53.70
2018-07-25T03:29:36.310Z,53.70
2018-07-25T03:30:41.246Z,53.70
2018-07-25T03:31:46.290Z,53.70
2018-07-25T03:32:51.274Z,53.70
2018-07-25T03:33:56.264Z,53.70
2018-07-25T03:35:01.136Z,53.70
2018-07-25T03:36:06.017Z,53.70
2018-07-25T03:37:10.818Z,53.70
2018-07-25T03:38:15.684Z,53.70
2018-07-25T03:39:20.386Z,53.70
2018-07-25T03:40:25.159Z,53.70
2018-07-25T03:41:29.931Z,53.70
2018-07-25T03:42:34.831Z,53.70
2018-07-25T03:43:39.750Z,53.70
2018-07-25T03:44:44.626Z,53.70
2018-07-25T03:45:49.375Z,53.80
2018-07-25T03:46:54.124Z,53.70
2018-07-25T03:47:58.841Z,53.70
2018-07-25T03:49:03.695Z,53.70
2018-07-25T03:50:08.642Z,53.80
2018-07-25T03:51:13.326Z,53.70
2018-07-25T03:52:18.267Z,53.70
2018-07-25T03:53:23.165Z,53.70
2018-07-25T03:54:28.139Z,53.70
2018-07-25T03:55:33.027Z,53.80
2018-07-25T03:56:37.823Z,53.80
2018-07-25T03:57:42.995Z,53.80
2018-07-25T03:58:48.030Z,53.80
2018-07-25T03:59:52.823Z,53.80
2018-07-25T04:00:57.684Z,53.80
2018-07-25T04:02:02.628Z,53.80
2018-07-25T04:03:07.565Z,53.80
2018-07-25T04:04:12.450Z,53.80
2018-07-25T04:05:17.398Z,53.80
2018-07-25T04:06:22.190Z,53.80
2018-07-25T04:07:27.051Z,53.80
2018-07-25T04:08:32.127Z,53.80
2018-07-25T04:09:36.878Z,53.80
2018-07-25T04:10:41.641Z,53.80
2018-07-25T04:11:46.424Z,53.80
2018-07-25T04:12:51.296Z,53.80
2018-07-25T04:13:56.191Z,53.80
2018-07-25T04:15:01.021Z,53.80
2018-07-25T04:16:05.837Z,53.80
2018-07-25T04:17:10.556Z,53.80
2018-07-25T04:18:15.232Z,53.80
2018-07-25T04:19:19.984Z,53.80
2018-07-25T04:20:24.935Z,53.80
2018-07-25T04:21:29.811Z,53.80
2018-07-25T04:22:34.702Z,53.90
2018-07-25T04:23:39.492Z,53.80
2018-07-25T04:24:44.350Z,53.80
2018-07-25T04:25:49.117Z,53.80
2018-07-25T04:26:53.845Z,53.80
2018-07-25T04:27:58.537Z,53.80
2018-07-25T04:29:03.431Z,53.80
2018-07-25T04:30:08.662Z,53.80
2018-07-25T04:31:13.554Z,53.80
2018-07-25T04:32:21.784Z,53.80
2018-07-25T04:33:26.705Z,53.90
2018-07-25T04:34:31.462Z,53.80
2018-07-25T04:35:36.238Z,53.80
2018-07-25T04:36:40.959Z,53.80
2018-07-25T04:37:45.839Z,53.90
2018-07-25T04:38:50.623Z,53.80
2018-07-25T04:39:55.374Z,53.80
2018-07-25T04:41:00.147Z,53.80
2018-07-25T04:42:05.039Z,53.90
2018-07-25T04:43:09.919Z,53.80
2018-07-25T04:44:14.990Z,53.80
2018-07-25T04:45:20.005Z,53.80
2018-07-25T04:46:25.068Z,53.80
2018-07-25T04:47:29.876Z,53.80
2018-07-25T04:48:34.803Z,53.80
2018-07-25T04:49:39.761Z,53.80
2018-07-25T04:50:44.724Z,53.90
2018-07-25T04:51:49.685Z,53.90
2018-07-25T04:52:54.515Z,53.80
2018-07-25T04:53:59.712Z,53.80
2018-07-25T04:55:04.702Z,53.80
2018-07-25T04:56:09.460Z,53.80
2018-07-25T04:57:14.512Z,53.80
2018-07-25T04:58:19.333Z,53.80
2018-07-25T04:59:24.180Z,53.80
2018-07-25T05:00:29.030Z,53.90
2018-07-25T05:01:33.775Z,54.00
2018-07-25T05:02:38.953Z,54.00
2018-07-25T05:03:44.081Z,54.00
2018-07-25T05:04:49.000Z,54.00
2018-07-25T05:05:53.774Z,54.00
2018-07-25T05:06:58.711Z,54.00
2018-07-25T05:08:03.617Z,54.00
2018-07-25T05:09:08.517Z,54.00
2018-07-25T05:10:13.301Z,54.20
2018-07-25T05:11:18.125Z,54.10
2018-07-25T05:12:22.911Z,54.20
2018-07-25T05:13:27.921Z,54.20
2018-07-25T05:14:32.812Z,54.10
2018-07-25T05:15:37.622Z,54.10
2018-07-25T05:16:42.454Z,54.10
2018-07-25T05:17:47.264Z,54.00
2018-07-25T05:18:52.087Z,54.10
2018-07-25T05:19:56.928Z,54.10
2018-07-25T05:21:01.982Z,54.20
2018-07-25T05:22:06.901Z,54.30
2018-07-25T05:23:11.992Z,54.30
2018-07-25T05:24:16.922Z,54.40
2018-07-25T05:25:21.653Z,54.40
2018-07-25T05:26:26.826Z,54.30
2018-07-25T05:27:31.689Z,54.40
2018-07-25T05:28:36.524Z,54.40
2018-07-25T05:29:41.307Z,54.40
2018-07-25T05:30:46.239Z,54.60
2018-07-25T05:31:51.224Z,54.50
2018-07-25T05:32:55.994Z,54.50
2018-07-25T05:34:00.901Z,54.60
2018-07-25T05:35:05.941Z,54.50
2018-07-25T05:36:10.768Z,54.50
2018-07-25T05:37:15.763Z,54.60
2018-07-25T05:38:20.691Z,54.50
2018-07-25T05:39:47.277Z,54.60
2018-07-25T05:41:05.272Z,54.80
2018-07-25T05:42:10.132Z,55.40
2018-07-25T05:43:15.071Z,54.60
2018-07-25T05:44:20.045Z,54.60
2018-07-25T05:45:24.893Z,54.50
2018-07-25T05:46:29.656Z,54.60
2018-07-25T05:47:34.545Z,54.50
2018-07-25T05:48:39.393Z,54.60
2018-07-25T05:49:44.282Z,54.60
2018-07-25T05:50:49.042Z,54.60
2018-07-25T05:51:54.014Z,54.60
2018-07-25T05:52:58.795Z,54.60
2018-07-25T05:54:03.523Z,54.70
2018-07-25T05:55:08.371Z,54.60
2018-07-25T05:56:13.276Z,54.60
2018-07-25T05:57:18.107Z,54.70
2018-07-25T05:58:22.958Z,55.10
2018-07-25T05:59:28.029Z,55.10
2018-07-25T06:00:32.860Z,55.30
2018-07-25T06:01:37.787Z,55.30
2018-07-25T06:02:42.828Z,55.30
2018-07-25T06:03:47.861Z,55.30
2018-07-25T06:04:52.752Z,55.20
2018-07-25T06:05:57.669Z,55.20
2018-07-25T06:07:05.511Z,55.20
2018-07-25T06:08:10.781Z,55.20
2018-07-25T06:09:15.634Z,55.20
2018-07-25T06:10:20.393Z,55.10
2018-07-25T06:11:25.386Z,55.10
2018-07-25T06:12:30.264Z,55.10
2018-07-25T06:13:35.144Z,55.10
2018-07-25T06:14:39.921Z,55.00
2018-07-25T06:15:44.744Z,55.10
2018-07-25T06:16:49.692Z,55.10
2018-07-25T06:17:54.774Z,55.20
2018-07-25T06:18:59.896Z,55.20
2018-07-25T06:20:04.646Z,55.30
2018-07-25T06:21:09.581Z,55.20
2018-07-25T06:22:14.421Z,55.20
2018-07-25T06:23:19.213Z,55.30
2018-07-25T06:24:24.083Z,55.30
2018-07-25T06:25:28.994Z,55.30
2018-07-25T06:26:34.029Z,55.20
2018-07-25T06:27:38.931Z,55.30
2018-07-25T06:28:43.934Z,55.30
2018-07-25T06:29:48.904Z,55.40
2018-07-25T06:30:53.645Z,55.40
2018-07-25T06:31:58.701Z,55.30
2018-07-25T06:33:03.819Z,55.40
2018-07-25T06:34:08.663Z,55.40
2018-07-25T06:35:13.582Z,55.30
2018-07-25T06:36:18.615Z,55.40
2018-07-25T06:37:23.458Z,55.40
2018-07-25T06:38:28.324Z,55.40
2018-07-25T06:39:33.300Z,55.40
2018-07-25T06:40:38.118Z,55.40
2018-07-25T06:41:43.125Z,55.40
2018-07-25T06:42:48.166Z,55.40
2018-07-25T06:43:52.947Z,55.40
2018-07-25T06:44:57.750Z,55.50
2018-07-25T06:46:02.742Z,55.40
2018-07-25T06:47:07.681Z,55.40
2018-07-25T06:48:12.564Z,55.50
2018-07-25T06:49:17.544Z,55.40
2018-07-25T06:50:22.509Z,55.40
2018-07-25T06:51:27.290Z,55.40
2018-07-25T06:52:32.243Z,55.50
2018-07-25T06:53:37.100Z,55.60
2018-07-25T06:54:41.969Z,55.60
2018-07-25T06:55:46.896Z,55.60
2018-07-25T06:56:51.877Z,55.70
2018-07-25T06:57:56.823Z,55.80
2018-07-25T06:59:01.897Z,55.70
2018-07-25T07:00:06.832Z,55.70
2018-07-25T07:01:11.820Z,55.80
2018-07-25T07:02:16.764Z,55.90
2018-07-25T07:03:21.668Z,55.90
2018-07-25T07:04:26.550Z,56.00
2018-07-25T07:05:31.460Z,56.10
2018-07-25T07:06:36.812Z,56.10
2018-07-25T07:07:46.370Z,56.20
2018-07-25T07:08:51.203Z,56.20
2018-07-25T07:09:56.777Z,56.40
2018-07-25T07:11:05.682Z,56.40
2018-07-25T07:12:11.120Z,56.50
2018-07-25T07:13:18.730Z,56.60
2018-07-25T07:14:28.550Z,56.60
2018-07-25T07:15:34.952Z,56.70
2018-07-25T07:16:40.037Z,56.70
2018-07-25T07:17:45.081Z,56.80
2018-07-25T07:18:50.044Z,56.80
2018-07-25T07:19:55.332Z,56.90
2018-07-25T07:21:00.109Z,56.90
2018-07-25T07:22:05.379Z,57.60
2018-07-25T07:23:10.171Z,57.00
2018-07-25T07:24:15.119Z,57.00
2018-07-25T07:25:19.975Z,57.00
2018-07-25T07:26:24.967Z,57.00
2018-07-25T07:27:30.405Z,57.00
2018-07-25T07:28:35.285Z,57.00
2018-07-25T07:29:42.675Z,56.90
2018-07-25T07:30:47.498Z,56.90
2018-07-25T07:31:52.601Z,56.90
2018-07-25T07:32:57.500Z,57.00
2018-07-25T07:34:02.599Z,56.90
2018-07-25T07:35:07.921Z,56.90
2018-07-25T07:36:12.941Z,56.80
2018-07-25T07:37:17.663Z,56.80
2018-07-25T07:38:22.461Z,56.80
2018-07-25T07:39:27.521Z,56.80
2018-07-25T07:40:32.806Z,57.50
2018-07-25T07:41:38.240Z,56.80
2018-07-25T07:42:43.281Z,56.80
2018-07-25T07:43:48.518Z,56.80
2018-07-25T07:44:53.636Z,56.90
2018-07-25T07:45:58.558Z,56.80
2018-07-25T07:47:08.243Z,56.90
2018-07-25T07:48:13.231Z,56.90
2018-07-25T07:49:18.163Z,56.90
2018-07-25T07:50:23.159Z,56.90
2018-07-25T07:51:28.036Z,56.90
2018-07-25T07:52:33.199Z,56.90
2018-07-25T07:53:38.224Z,57.00
2018-07-25T07:54:43.146Z,57.00
2018-07-25T07:55:48.289Z,56.90
2018-07-25T07:56:53.137Z,56.90
2018-07-25T07:57:58.177Z,56.90
2018-07-25T07:59:04.078Z,56.90
2018-07-25T08:00:09.304Z,56.90
2018-07-25T08:01:14.153Z,56.90
2018-07-25T08:02:19.005Z,57.00
2018-07-25T08:03:23.919Z,57.00
2018-07-25T08:04:28.885Z,57.00
2018-07-25T08:05:33.797Z,57.00
2018-07-25T08:06:38.914Z,57.00
2018-07-25T08:07:43.963Z,57.00
2018-07-25T08:08:48.819Z,57.00
2018-07-25T08:09:53.852Z,57.00
2018-07-25T08:10:58.907Z,57.00
2018-07-25T08:12:03.893Z,56.90
2018-07-25T08:13:08.848Z,57.00
2018-07-25T08:14:13.771Z,57.00
2018-07-25T08:15:18.460Z,57.10
2018-07-25T08:16:23.271Z,56.90
2018-07-25T08:17:28.077Z,56.90
2018-07-25T08:18:33.009Z,57.00
2018-07-25T08:19:37.835Z,56.90
2018-07-25T08:20:42.801Z,56.90
2018-07-25T08:21:47.758Z,56.90
2018-07-25T08:22:53.010Z,57.00
2018-07-25T08:23:57.867Z,56.90
2018-07-25T08:25:02.711Z,56.90
2018-07-25T08:26:07.511Z,56.90
2018-07-25T08:27:13.486Z,56.80
2018-07-25T08:28:18.324Z,56.90
2018-07-25T08:29:23.268Z,56.90
2018-07-25T08:30:28.326Z,57.50
2018-07-25T08:31:33.263Z,56.80
2018-07-25T08:32:38.414Z,56.80
2018-07-25T08:33:43.497Z,56.80
2018-07-25T08:34:48.539Z,56.80
2018-07-25T08:35:53.847Z,56.80
2018-07-25T08:36:58.860Z,56.80
2018-07-25T08:38:03.857Z,56.80
2018-07-25T08:39:08.829Z,56.80
2018-07-25T08:40:13.744Z,56.80
2018-07-25T08:41:18.611Z,56.80
2018-07-25T08:42:23.435Z,56.80
2018-07-25T08:43:28.420Z,56.80
2018-07-25T08:44:33.217Z,56.80
2018-07-25T08:45:38.247Z,56.70
2018-07-25T08:46:43.017Z,56.80
2018-07-25T08:47:48.003Z,56.70
2018-07-25T08:48:53.042Z,56.70
2018-07-25T08:49:58.177Z,56.70
2018-07-25T08:51:02.969Z,57.40
2018-07-25T08:52:07.997Z,56.70
2018-07-25T08:53:12.988Z,56.70
2018-07-25T08:54:17.828Z,56.70
2018-07-25T08:55:22.948Z,56.70
2018-07-25T08:56:27.858Z,56.80
2018-07-25T08:57:32.826Z,56.80
2018-07-25T08:58:37.837Z,56.80
2018-07-25T08:59:42.753Z,56.80
2018-07-25T09:00:47.740Z,56.90
2018-07-25T09:01:52.536Z,56.80
2018-07-25T09:02:57.419Z,56.70
2018-07-25T09:04:02.444Z,56.60
2018-07-25T09:05:07.328Z,56.50
2018-07-25T09:06:12.110Z,56.50
2018-07-25T09:07:16.839Z,56.40
2018-07-25T09:08:21.767Z,56.40
2018-07-25T09:09:26.498Z,56.30
2018-07-25T09:10:31.255Z,56.30
2018-07-25T09:11:36.121Z,56.30
2018-07-25T09:12:41.014Z,56.20
2018-07-25T09:13:45.781Z,56.30
2018-07-25T09:14:50.756Z,56.20
2018-07-25T09:15:55.669Z,56.20
2018-07-25T09:17:00.358Z,56.20
2018-07-25T09:18:05.151Z,56.20
2018-07-25T09:19:10.078Z,56.10
2018-07-25T09:20:14.849Z,56.10
2018-07-25T09:21:19.927Z,56.10
2018-07-25T09:22:24.906Z,56.10
2018-07-25T09:23:29.785Z,56.10
2018-07-25T09:24:34.859Z,56.00
2018-07-25T09:25:40.042Z,55.90
2018-07-25T09:26:44.985Z,55.90
2018-07-25T09:27:49.986Z,56.00
2018-07-25T09:28:54.847Z,55.90
2018-07-25T09:29:59.899Z,55.90
2018-07-25T09:31:04.714Z,55.80
2018-07-25T09:32:09.415Z,55.90
2018-07-25T09:33:14.351Z,55.80
2018-07-25T09:34:19.537Z,55.90
2018-07-25T09:35:24.760Z,55.90
2018-07-25T09:36:29.578Z,55.80
2018-07-25T09:37:34.502Z,55.90
2018-07-25T09:38:39.312Z,55.80
2018-07-25T09:39:44.313Z,55.80
2018-07-25T09:40:49.304Z,55.80
2018-07-25T09:41:54.353Z,55.80
2018-07-25T09:42:59.314Z,55.80
2018-07-25T09:44:04.162Z,55.70
2018-07-25T09:45:09.066Z,55.70
2018-07-25T09:46:13.860Z,55.80
2018-07-25T09:47:18.735Z,55.80
2018-07-25T09:48:23.434Z,55.70
2018-07-25T09:49:28.166Z,55.70
2018-07-25T09:50:33.073Z,55.80
2018-07-25T09:51:37.864Z,55.80
2018-07-25T09:52:42.742Z,55.70
2018-07-25T09:53:47.784Z,55.70
2018-07-25T09:54:52.653Z,55.70
2018-07-25T09:55:57.452Z,55.70
2018-07-25T09:57:02.459Z,55.70
2018-07-25T09:58:07.341Z,55.70
2018-07-25T09:59:12.273Z,55.70
2018-07-25T10:00:17.069Z,55.70
2018-07-25T10:01:21.888Z,55.70
2018-07-25T10:02:26.735Z,55.60
2018-07-25T10:03:31.704Z,55.60
2018-07-25T10:04:36.553Z,55.60
2018-07-25T10:05:41.344Z,56.30
2018-07-25T10:06:46.357Z,55.70
2018-07-25T10:07:51.346Z,55.70
2018-07-25T10:08:56.348Z,55.60
2018-07-25T10:10:01.242Z,55.60
2018-07-25T10:11:05.960Z,55.60
2018-07-25T10:12:10.761Z,55.60
2018-07-25T10:13:15.633Z,55.60
2018-07-25T10:14:20.583Z,55.60
2018-07-25T10:15:25.472Z,55.60
2018-07-25T10:16:30.279Z,55.60
2018-07-25T10:17:35.201Z,55.50
2018-07-25T10:18:39.909Z,55.60
2018-07-25T10:19:44.795Z,55.50
2018-07-25T10:20:49.683Z,55.50
2018-07-25T10:21:54.992Z,55.50
2018-07-25T10:22:59.702Z,55.50
2018-07-25T10:24:04.421Z,56.20
2018-07-25T10:25:09.330Z,55.50
2018-07-25T10:26:14.141Z,55.50
2018-07-25T10:27:19.020Z,55.50
2018-07-25T10:28:23.720Z,55.50
2018-07-25T10:29:28.821Z,55.50
2018-07-25T10:30:33.589Z,55.50
2018-07-25T10:31:38.582Z,55.50
2018-07-25T10:32:43.737Z,55.50
2018-07-25T10:33:48.673Z,55.50
2018-07-25T10:34:53.655Z,55.50
2018-07-25T10:35:58.588Z,55.50
2018-07-25T10:37:03.692Z,55.50
2018-07-25T10:38:08.748Z,55.40
2018-07-25T10:39:13.626Z,55.40
2018-07-25T10:40:18.406Z,55.40
2018-07-25T10:41:23.185Z,55.40
2018-07-25T10:42:28.004Z,55.40
2018-07-25T10:43:32.759Z,55.50
2018-07-25T10:44:37.668Z,55.50
2018-07-25T10:45:42.556Z,55.40
2018-07-25T10:46:47.336Z,55.40
2018-07-25T10:47:53.360Z,55.40
2018-07-25T10:48:58.907Z,55.40
2018-07-25T10:50:04.207Z,55.40
2018-07-25T10:51:09.012Z,55.40
2018-07-25T10:52:13.785Z,55.40
2018-07-25T10:53:18.654Z,55.40
2018-07-25T10:54:23.533Z,55.30
2018-07-25T10:55:28.292Z,55.30
2018-07-25T10:56:33.156Z,55.30
2018-07-25T10:57:38.081Z,55.30
2018-07-25T10:58:43.104Z,55.40
2018-07-25T10:59:48.039Z,55.40
2018-07-25T11:00:52.934Z,55.30
2018-07-25T11:01:58.039Z,55.50
2018-07-25T11:03:02.919Z,55.60
2018-07-25T11:04:07.714Z,55.90
2018-07-25T11:05:12.513Z,56.00
2018-07-25T11:06:17.264Z,56.10
2018-07-25T11:07:22.183Z,56.10
2018-07-25T11:08:27.124Z,56.00
2018-07-25T11:09:32.153Z,55.90
2018-07-25T11:10:36.964Z,55.80
2018-07-25T11:11:41.838Z,55.80
2018-07-25T11:12:46.988Z,55.60
2018-07-25T11:13:52.093Z,55.60
2018-07-25T11:14:56.922Z,55.60
2018-07-25T11:16:01.918Z,55.60
2018-07-25T11:17:06.892Z,55.60
2018-07-25T11:18:11.701Z,55.50
2018-07-25T11:19:16.598Z,55.50
2018-07-25T11:20:21.455Z,55.40
2018-07-25T11:21:26.353Z,55.40
2018-07-25T11:22:31.258Z,55.40
2018-07-25T11:23:36.284Z,55.40
2018-07-25T11:24:41.102Z,55.40
2018-07-25T11:25:45.879Z,55.40
2018-07-25T11:26:50.732Z,55.30
2018-07-25T11:27:55.677Z,55.30
2018-07-25T11:29:00.461Z,55.30
2018-07-25T11:30:05.443Z,55.30
2018-07-25T11:31:10.156Z,55.30
2018-07-25T11:32:15.163Z,55.30
2018-07-25T11:33:19.898Z,55.30
2018-07-25T11:34:24.858Z,55.30
2018-07-25T11:35:29.772Z,55.20
2018-07-25T11:36:34.503Z,55.20
2018-07-25T11:37:39.318Z,55.20
2018-07-25T11:38:44.269Z,55.20
2018-07-25T11:39:49.016Z,55.20
2018-07-25T11:40:53.950Z,55.20
2018-07-25T11:41:59.231Z,55.20
2018-07-25T11:43:04.126Z,55.20
2018-07-25T11:44:08.871Z,55.20
2018-07-25T11:45:13.763Z,55.10
2018-07-25T11:46:18.499Z,55.10
2018-07-25T11:47:23.252Z,55.10
2018-07-25T11:48:28.093Z,55.10
2018-07-25T11:49:32.902Z,55.10
2018-07-25T11:50:37.712Z,55.20
2018-07-25T11:51:42.609Z,55.10
2018-07-25T11:52:47.553Z,55.10
2018-07-25T11:53:52.403Z,55.10
2018-07-25T11:54:57.284Z,55.10
2018-07-25T11:56:14.473Z,55.10
2018-07-25T11:57:21.564Z,55.10
2018-07-25T11:58:26.650Z,55.10
2018-07-25T11:59:31.497Z,55.10
2018-07-25T12:00:36.369Z,55.10
2018-07-25T12:01:41.130Z,55.10
2018-07-25T12:02:46.035Z,55.10
2018-07-25T12:03:50.895Z,55.10
2018-07-25T12:04:55.711Z,55.10
2018-07-25T12:06:00.566Z,55.10
2018-07-25T12:07:05.450Z,55.10
2018-07-25T12:08:10.271Z,55.10
2018-07-25T12:09:15.286Z,55.10
2018-07-25T12:10:19.975Z,55.10
2018-07-25T12:11:24.780Z,55.10
2018-07-25T12:12:29.544Z,55.10
2018-07-25T12:13:34.326Z,55.10
2018-07-25T12:14:39.234Z,55.00
2018-07-25T12:15:44.171Z,55.00
2018-07-25T12:16:49.086Z,55.10
2018-07-25T12:17:54.029Z,55.10
2018-07-25T12:18:58.928Z,55.00
2018-07-25T12:20:03.772Z,55.10
2018-07-25T12:21:08.706Z,55.00
2018-07-25T12:22:13.634Z,55.00
2018-07-25T12:23:18.389Z,55.00
2018-07-25T12:24:23.364Z,55.00
2018-07-25T12:25:28.236Z,55.00
2018-07-25T12:26:33.197Z,55.00
2018-07-25T12:27:38.060Z,55.00
2018-07-25T12:28:42.828Z,55.10
2018-07-25T12:29:47.739Z,55.00
2018-07-25T12:30:52.690Z,55.00
2018-07-25T12:31:57.627Z,54.90
2018-07-25T12:33:02.521Z,55.00
2018-07-25T12:34:07.443Z,55.00
2018-07-25T12:35:12.184Z,55.00
2018-07-25T12:36:17.197Z,54.90
2018-07-25T12:37:21.970Z,54.90
2018-07-25T12:38:26.900Z,54.90
2018-07-25T12:39:31.630Z,54.90
2018-07-25T12:40:36.423Z,55.00
2018-07-25T12:41:41.284Z,54.90
2018-07-25T12:42:46.041Z,55.00
2018-07-25T12:43:50.914Z,55.00
2018-07-25T12:44:55.715Z,54.90
2018-07-25T12:46:00.477Z,55.00
2018-07-25T12:47:05.230Z,55.00
2018-07-25T12:48:09.964Z,54.90
2018-07-25T12:49:14.755Z,54.90
2018-07-25T12:50:19.672Z,54.90
2018-07-25T12:51:24.547Z,55.00
2018-07-25T12:52:29.389Z,55.00
2018-07-25T12:53:34.160Z,54.90
2018-07-25T12:54:39.069Z,55.00
2018-07-25T12:55:43.917Z,55.00
2018-07-25T12:56:48.662Z,55.00
2018-07-25T12:57:53.555Z,54.90
2018-07-25T12:58:58.289Z,54.90
2018-07-25T13:00:03.050Z,54.90
2018-07-25T13:01:07.771Z,54.90
2018-07-25T13:02:12.742Z,55.00
2018-07-25T13:03:17.524Z,54.90
2018-07-25T13:04:22.362Z,54.90
2018-07-25T13:05:27.140Z,54.90
2018-07-25T13:06:32.070Z,54.90
2018-07-25T13:07:36.982Z,54.90
2018-07-25T13:08:42.064Z,54.90
2018-07-25T13:09:46.948Z,54.90
2018-07-25T13:10:51.775Z,54.90
2018-07-25T13:11:56.630Z,54.90
2018-07-25T13:13:01.529Z,54.90
2018-07-25T13:14:06.417Z,54.90
2018-07-25T13:15:11.507Z,54.80
2018-07-25T13:16:16.444Z,54.90
2018-07-25T13:17:21.330Z,54.90
2018-07-25T13:18:26.213Z,54.90
2018-07-25T13:19:31.109Z,54.90
2018-07-25T13:20:36.072Z,54.80
2018-07-25T13:21:40.947Z,54.90
2018-07-25T13:22:45.925Z,54.90
2018-07-25T13:23:50.709Z,54.90
2018-07-25T13:24:55.495Z,54.80
2018-07-25T13:26:00.281Z,54.80
2018-07-25T13:27:05.169Z,54.90
2018-07-25T13:28:09.950Z,54.80
2018-07-25T13:29:15.000Z,54.80
2018-07-25T13:30:19.767Z,54.80
2018-07-25T13:31:24.668Z,54.80
2018-07-25T13:32:29.737Z,54.80
2018-07-25T13:33:34.669Z,54.80
2018-07-25T13:34:39.732Z,54.80
2018-07-25T13:35:44.617Z,54.80
2018-07-25T13:36:49.456Z,54.80
2018-07-25T13:37:54.536Z,54.80
2018-07-25T13:38:59.454Z,54.80
2018-07-25T13:40:04.512Z,54.80
2018-07-25T13:41:09.308Z,54.80
2018-07-25T13:42:14.199Z,54.80
2018-07-25T13:43:19.138Z,54.80
2018-07-25T13:44:23.904Z,54.80
2018-07-25T13:45:29.668Z,54.80
2018-07-25T13:46:34.694Z,54.80
2018-07-25T13:47:39.473Z,54.80
2018-07-25T13:48:44.411Z,54.70
2018-07-25T13:49:49.381Z,54.70
2018-07-25T13:50:54.367Z,54.70
2018-07-25T13:51:59.295Z,54.70
2018-07-25T13:53:04.183Z,54.70
2018-07-25T13:54:09.205Z,54.70
2018-07-25T13:55:14.132Z,54.70
2018-07-25T13:56:19.088Z,54.70
2018-07-25T13:57:23.959Z,54.70